Time;durP1;ratioP1;P1;durP2;ratioP2;P2;SDS_P1;SDS_P2;PMS_P1;PMS_P2;Temp;Humidity;BMP_temperature;BMP_pressure;BME280_temperature;BME280_humidity;BME280_pressure;Samples;Min_cycle;Max_cycle;Signal;HPM_P1;HPM_P2
2022/09/22 00:00:30;;;;;;;;;;;;;;;;;;4995389;28;7164;-86
2022/09/22 00:02:59;;;;;;;;;;;;;;;;;;4995240;28;8474;-86
2022/09/22 00:05:25;;;;;;;;;;;;;;;;;;4995593;28;7048;-86
2022/09/22 00:07:52;;;;;;;;;;;;;;;;;;4996543;28;6827;-85
2022/09/22 00:10:20;;;;;;;;;;;;;;;;;;4995005;28;8587;-87
2022/09/22 00:12:49;;;;;;;;;;;;;;;;;;4995498;28;8270;-85
2022/09/22 00:15:15;;;;;;;;;;;;;;;;;;4995592;28;8596;-84
2022/09/22 00:17:41;;;;;;;;;;;;;;;;;;4995323;28;7344;-86
2022/09/22 00:20:07;;;;;;;;;;;;;;;;;;4994995;28;8882;-87
2022/09/22 00:22:32;;;;;;;;;;;;;;;;;;4994833;28;7122;-86
2022/09/22 00:24:58;;;;;;;;;;;;;;;;;;4995187;28;8414;-87
2022/09/22 00:27:24;;;;;;;;;;;;;;;;;;4995106;28;7262;-89
2022/09/22 00:29:50;;;;;;;;;;;;;;;;;;4995033;28;8387;-86
2022/09/22 00:32:18;;;;;;;;;;;;;;;;;;4995435;28;8321;-86
2022/09/22 00:34:44;;;;;;;;;;;;;;;;;;4994593;28;6808;-86
2022/09/22 00:37:10;;;;;;;;;;;;;;;;;;4995322;28;8455;-85
2022/09/22 00:39:35;;;;;;;;;;;;;;;;;;4994630;28;7160;-85
2022/09/22 00:42:01;;;;;;;;;;;;;;;;;;4994329;28;7102;-86
2022/09/22 00:44:30;;;;;;;;;;;;;;;;;;4994910;28;8352;-86
2022/09/22 00:47:05;;;;;;;;;;;;;;;;;;5027324;28;6804;-86
2022/09/22 00:49:51;;;;;;;;;;;;;;;;;;4994424;28;8702;-86
2022/09/22 00:52:26;;;;;;;;;;;;;;;;;;4995047;28;8357;-87
2022/09/22 00:54:56;;;;;;;;;;;;;;;;;;4996165;28;9277;-85
2022/09/22 00:57:23;;;;;;;;;;;;;;;;;;4995018;28;7230;-86
2022/09/22 00:59:51;;;;;;;;;;;;;;;;;;4994643;28;8471;-82
2022/09/22 01:02:17;;;;;;;;;;;;;;;;;;4994103;28;8387;-86
2022/09/22 01:04:43;;;;;;;;;;;;;;;;;;4994306;28;7004;-86
2022/09/22 01:07:11;;;;;;;;;;;;;;;;;;4994715;28;9608;-86
2022/09/22 01:09:37;;;;;;;;;;;;;;;;;;4994211;28;7517;-87
2022/09/22 01:12:03;;;;;;;;;;;;;;;;;;4993928;28;8370;-85
2022/09/22 01:14:30;;;;;;;;;;;;;;;;;;4994335;28;7042;-86
2022/09/22 01:17:16;;;;;;;;;;;;;;;;;;5028127;28;7035;-85
2022/09/22 01:20:01;;;;;;;;;;;;;;;;;;4994195;28;8405;-86
2022/09/22 01:22:27;;;;;;;;;;;;;;;;;;5027062;28;7121;-86
2022/09/22 01:25:07;;;;;;;;;;;;;;;;;;5027461;28;7419;-84
2022/09/22 01:27:39;;;;;;;;;;;;;;;;;;4994332;28;8262;-87
2022/09/22 01:30:17;;;;;;;;;;;;;;;;;;5027250;28;8530;-88
2022/09/22 01:33:01;;;;;;;;;;;;;;;;;;4994410;28;9447;-86
2022/09/22 01:35:42;;;;;;;;;;;;;;;;;;5027342;28;7016;-87
2022/09/22 01:38:40;;;;;;;;;;;;;;;;;;4994081;28;8422;-86
2022/09/22 01:41:14;;;;;;;;;;;;;;;;;;4993525;28;8375;-86
2022/09/22 01:43:51;;;;;;;;;;;;;;;;;;5026799;28;8668;-87
2022/09/22 01:46:25;;;;;;;;;;;;;;;;;;4993951;28;8470;-86
2022/09/22 01:48:53;;;;;;;;;;;;;;;;;;4994039;28;6995;-86
2022/09/22 01:51:24;;;;;;;;;;;;;;;;;;4995386;28;8274;-88
2022/09/22 01:53:54;;;;;;;;;;;;;;;;;;4997698;28;7169;-86
2022/09/22 01:56:23;;;;;;;;;;;;;;;;;;5000183;28;7164;-87
2022/09/22 01:58:53;;;;;;;;;;;;;;;;;;4999605;28;6835;-87
2022/09/22 02:01:22;;;;;;;;;;;;;;;;;;4998622;28;7038;-86
2022/09/22 02:03:53;;;;;;;;;;;;;;;;;;4999522;28;8552;-86
2022/09/22 02:06:42;;;;;;;;;;;;;;;;;;4999383;28;7235;-84
2022/09/22 02:09:17;;;;;;;;;;;;;;;;;;4998988;28;8534;-86
2022/09/22 02:11:43;;;;;;;;;;;;;;;;;;4997835;28;6815;-87
2022/09/22 02:14:09;;;;;;;;;;;;;;;;;;4998210;28;8536;-87
2022/09/22 02:16:35;;;;;;;;;;;;;;;;;;4998652;28;8763;-87
2022/09/22 02:19:05;;;;;;;;;;;;;;;;;;4998216;28;7391;-87
2022/09/22 02:21:31;;;;;;;;;;;;;;;;;;4998777;28;7142;-87
2022/09/22 02:23:57;;;;;;;;;;;;;;;;;;4998201;28;7220;-86
2022/09/22 02:26:24;;;;;;;;;;;;;;;;;;4998398;28;6807;-87
2022/09/22 02:28:53;;;;;;;;;;;;;;;;;;4999055;28;8665;-87
2022/09/22 02:31:21;;;;;;;;;;;;;;;;;;4997801;28;8389;-87
2022/09/22 02:33:49;;;;;;;;;;;;;;;;;;4997233;28;6827;-86
2022/09/22 02:36:34;;;;;;;;;;;;;;;;;;4996796;28;8373;-86
2022/09/22 02:39:05;;;;;;;;;;;;;;;;;;4997136;28;7039;-86
2022/09/22 02:41:42;;;;;;;;;;;;;;;;;;4996797;28;7018;-86
2022/09/22 02:44:21;;;;;;;;;;;;;;;;;;5029912;28;8561;-86
2022/09/22 02:46:53;;;;;;;;;;;;;;;;;;4997668;28;8711;-87
2022/09/22 02:49:20;;;;;;;;;;;;;;;;;;4996888;28;8482;-85
2022/09/22 02:51:48;;;;;;;;;;;;;;;;;;4996565;28;8450;-86
2022/09/22 02:54:13;;;;;;;;;;;;;;;;;;4996621;28;7334;-86
2022/09/22 02:56:40;;;;;;;;;;;;;;;;;;4999559;28;8710;-87
2022/09/22 02:59:05;;;;;;;;;;;;;;;;;;5000594;28;8371;-81
2022/09/22 03:01:31;;;;;;;;;;;;;;;;;;5003152;28;8289;-86
2022/09/22 03:03:56;;;;;;;;;;;;;;;;;;4996610;28;8658;-85
2022/09/22 03:06:21;;;;;;;;;;;;;;;;;;4997812;28;8828;-88
2022/09/22 03:08:47;;;;;;;;;;;;;;;;;;4997260;28;8488;-83
2022/09/22 03:11:12;;;;;;;;;;;;;;;;;;4998057;28;8882;-85
2022/09/22 03:13:38;;;;;;;;;;;;;;;;;;4996924;28;8668;-85
2022/09/22 03:16:03;;;;;;;;;;;;;;;;;;4998024;28;8753;-87
2022/09/22 03:18:29;;;;;;;;;;;;;;;;;;4996992;28;6996;-85
2022/09/22 03:20:54;;;;;;;;;;;;;;;;;;4996605;28;7017;-87
2022/09/22 03:23:19;;;;;;;;;;;;;;;;;;4996319;28;8345;-86
2022/09/22 03:25:45;;;;;;;;;;;;;;;;;;4997247;28;7386;-86
2022/09/22 03:28:10;;;;;;;;;;;;;;;;;;4996228;28;8333;-85
2022/09/22 03:30:39;;;;;;;;;;;;;;;;;;4996115;28;8416;-87
2022/09/22 03:33:04;;;;;;;;;;;;;;;;;;4995959;28;7016;-86
2022/09/22 03:35:30;;;;;;;;;;;;;;;;;;4995745;28;7132;-87
2022/09/22 03:37:55;;;;;;;;;;;;;;;;;;4997202;28;8386;-86
2022/09/22 03:40:21;;;;;;;;;;;;;;;;;;4996654;28;8341;-86
2022/09/22 03:42:47;;;;;;;;;;;;;;;;;;4996599;28;8354;-86
2022/09/22 03:45:13;;;;;;;;;;;;;;;;;;4996657;28;7211;-86
2022/09/22 03:47:39;;;;;;;;;;;;;;;;;;4996523;28;7186;-83
2022/09/22 03:50:05;;;;;;;;;;;;;;;;;;4996988;28;8578;-86
2022/09/22 03:52:32;;;;;;;;;;;;;;;;;;4997512;28;8349;-84
2022/09/22 03:54:58;;;;;;;;;;;;;;;;;;4996831;28;8756;-84
2022/09/22 03:57:24;;;;;;;;;;;;;;;;;;4998024;28;9527;-87
2022/09/22 03:59:50;;;;;;;;;;;;;;;;;;4997512;28;8376;-87
2022/09/22 04:02:16;;;;;;;;;;;;;;;;;;4996472;28;7171;-87
2022/09/22 04:04:42;;;;;;;;;;;;;;;;;;4996280;28;8850;-87
2022/09/22 04:07:07;;;;;;;;;;;;;;;;;;4996539;28;7009;-86
2022/09/22 04:09:33;;;;;;;;;;;;;;;;;;4997019;28;8951;-87
2022/09/22 04:11:59;;;;;;;;;;;;;;;;;;4996806;28;8345;-86
2022/09/22 04:14:25;;;;;;;;;;;;;;;;;;4996295;28;7037;-86
2022/09/22 04:16:52;;;;;;;;;;;;;;;;;;4995416;28;8349;-86
2022/09/22 04:19:18;;;;;;;;;;;;;;;;;;4996603;28;7026;-87
2022/09/22 04:21:44;;;;;;;;;;;;;;;;;;4996660;28;8732;-86
2022/09/22 04:24:10;;;;;;;;;;;;;;;;;;4997493;28;8692;-87
2022/09/22 04:26:37;;;;;;;;;;;;;;;;;;4996104;28;7245;-87
2022/09/22 04:29:03;;;;;;;;;;;;;;;;;;4997255;28;8392;-86
2022/09/22 04:31:28;;;;;;;;;;;;;;;;;;4997417;28;8444;-86
2022/09/22 04:33:54;;;;;;;;;;;;;;;;;;4996369;28;8447;-86
2022/09/22 04:36:20;;;;;;;;;;;;;;;;;;4995669;28;7131;-87
2022/09/22 04:38:45;;;;;;;;;;;;;;;;;;4996876;28;7045;-86
2022/09/22 04:41:10;;;;;;;;;;;;;;;;;;4996061;28;8348;-87
2022/09/22 04:43:36;;;;;;;;;;;;;;;;;;4996186;28;8337;-86
2022/09/22 04:46:02;;;;;;;;;;;;;;;;;;4995900;28;8464;-86
2022/09/22 04:48:28;;;;;;;;;;;;;;;;;;4995192;28;7099;-84
2022/09/22 04:50:53;;;;;;;;;;;;;;;;;;4994719;28;8763;-87
2022/09/22 04:53:19;;;;;;;;;;;;;;;;;;4994910;28;7111;-86
2022/09/22 04:55:44;;;;;;;;;;;;;;;;;;4994612;28;7135;-87
2022/09/22 04:58:10;;;;;;;;;;;;;;;;;;4994384;28;8648;-86
2022/09/22 05:00:36;;;;;;;;;;;;;;;;;;4994273;28;8353;-86
2022/09/22 05:03:06;;;;;;;;;;;;;;;;;;4994238;28;8646;-86
2022/09/22 05:05:31;;;;;;;;;;;;;;;;;;4994916;28;8385;-88
2022/09/22 05:07:57;;;;;;;;;;;;;;;;;;4994742;28;8344;-85
2022/09/22 05:10:24;;;;;;;;;;;;;;;;;;4993815;28;8765;-85
2022/09/22 05:12:52;;;;;;;;;;;;;;;;;;4993496;28;7028;-87
2022/09/22 05:15:17;;;;;;;;;;;;;;;;;;4995402;28;7013;-84
2022/09/22 05:17:47;;;;;;;;;;;;;;;;;;4994869;28;8451;-86
2022/09/22 05:20:13;;;;;;;;;;;;;;;;;;4994328;28;8619;-86
2022/09/22 05:22:39;;;;;;;;;;;;;;;;;;4994873;28;8274;-85
2022/09/22 05:25:09;;;;;;;;;;;;;;;;;;4995311;28;7002;-85
2022/09/22 05:27:36;;;;;;;;;;;;;;;;;;4996814;28;7228;-86
2022/09/22 05:30:03;;;;;;;;;;;;;;;;;;4998677;28;7159;-86
2022/09/22 05:32:28;;;;;;;;;;;;;;;;;;4998129;28;8644;-87
2022/09/22 05:34:54;;;;;;;;;;;;;;;;;;4998985;28;7044;-85
2022/09/22 05:37:20;;;;;;;;;;;;;;;;;;4999275;28;7317;-84
2022/09/22 05:39:45;;;;;;;;;;;;;;;;;;5013905;28;8337;-85
2022/09/22 05:42:10;;;;;;;;;;;;;;;;;;5024013;28;7157;-87
2022/09/22 05:44:36;;;;;;;;;;;;;;;;;;5023854;28;8541;-86
2022/09/22 05:47:01;;;;;;;;;;;;;;;;;;5030450;28;8296;-87
2022/09/22 05:49:27;;;;;;;;;;;;;;;;;;5024725;28;7136;-87
2022/09/22 05:51:56;;;;;;;;;;;;;;;;;;5032390;28;8383;-85
2022/09/22 05:54:22;;;;;;;;;;;;;;;;;;5025573;28;8698;-86
2022/09/22 05:56:47;;;;;;;;;;;;;;;;;;5027335;28;7089;-86
2022/09/22 05:59:12;;;;;;;;;;;;;;;;;;5024638;28;8425;-86
2022/09/22 06:01:38;;;;;;;;;;;;;;;;;;5031947;28;7149;-86
2022/09/22 06:04:03;;;;;;;;;;;;;;;;;;5024481;28;7124;-86
2022/09/22 06:06:29;;;;;;;;;;;;;;;;;;5014663;28;8351;-88
2022/09/22 06:08:54;;;;;;;;;;;;;;;;;;5013188;28;7090;-87
2022/09/22 06:11:20;;;;;;;;;;;;;;;;;;5031968;28;7037;-87
2022/09/22 06:13:49;;;;;;;;;;;;;;;;;;5022812;28;8378;-85
2022/09/22 06:16:14;;;;;;;;;;;;;;;;;;5021477;28;7057;-86
2022/09/22 06:18:40;;;;;;;;;;;;;;;;;;5033937;28;7129;-80
2022/09/22 06:21:05;;;;;;;;;;;;;;;;;;5026617;28;8513;-86
2022/09/22 06:23:31;;;;;;;;;;;;;;;;;;5024135;28;7168;-87
2022/09/22 06:25:57;;;;;;;;;;;;;;;;;;5025325;28;8367;-86
2022/09/22 06:28:22;;;;;;;;;;;;;;;;;;5022702;28;9291;-86
2022/09/22 06:30:50;;;;;;;;;;;;;;;;;;5030729;28;8484;-84
2022/09/22 06:33:17;;;;;;;;;;;;;;;;;;5030370;28;7183;-80
2022/09/22 06:35:44;;;;;;;;;;;;;;;;;;5029658;28;7219;-80
2022/09/22 06:38:13;;;;;;;;;;;;;;;;;;5031881;28;7426;-81
2022/09/22 06:40:40;;;;;;;;;;;;;;;;;;5027693;28;7654;-79
2022/09/22 06:43:10;;;;;;;;;;;;;;;;;;5025635;28;8396;-73
2022/09/22 06:45:36;;;;;;;;;;;;;;;;;;5025978;28;7050;-83
2022/09/22 06:48:02;;;;;;;;;;;;;;;;;;5026713;28;7147;-81
2022/09/22 06:50:30;;;;;;;;;;;;;;;;;;5028379;28;8444;-81
2022/09/22 06:53:00;;;;;;;;;;;;;;;;;;5028687;28;8432;-80
2022/09/22 06:55:29;;;;;;;;;;;;;;;;;;5028832;28;8386;-80
2022/09/22 06:57:59;;;;;;;;;;;;;;;;;;5028807;28;8770;-81
2022/09/22 07:00:32;;;;;;;;;;;;;;;;;;5028616;28;8881;-80
2022/09/22 07:03:07;;;;;;;;;;;;;;;;;;5028478;28;8363;-81
2022/09/22 07:05:35;;;;;;;;;;;;;;;;;;5045361;28;7040;-81
2022/09/22 07:08:01;;;;;;;;;;;;;;;;;;5028834;28;7036;-80
2022/09/22 07:10:26;;;;;;;;;;;;;;;;;;5045129;28;7209;-81
2022/09/22 07:12:53;;;;;;;;;;;;;;;;;;5028318;28;8412;-80
2022/09/22 07:15:19;;;;;;;;;;;;;;;;;;5045003;28;8492;-80
2022/09/22 07:17:50;;;;;;;;;;;;;;;;;;5028384;28;7250;-80
2022/09/22 07:20:16;;;;;;;;;;;;;;;;;;5027478;28;8376;-79
2022/09/22 07:22:42;;;;;;;;;;;;;;;;;;5028205;28;7148;-79
2022/09/22 07:25:07;;;;;;;;;;;;;;;;;;5028339;28;7028;-79
2022/09/22 07:27:33;;;;;;;;;;;;;;;;;;5028198;28;8705;-79
2022/09/22 07:30:00;;;;;;;;;;;;;;;;;;5028724;28;7002;-79
2022/09/22 07:32:27;;;;;;;;;;;;;;;;;;5028196;28;7082;-79
2022/09/22 07:34:52;;;;;;;;;;;;;;;;;;5028056;28;7163;-79
2022/09/22 07:37:18;;;;;;;;;;;;;;;;;;5028405;28;7387;-79
2022/09/22 07:39:46;;;;;;;;;;;;;;;;;;5028132;28;8528;-79
2022/09/22 07:42:12;;;;;;;;;;;;;;;;;;5027945;28;7149;-79
2022/09/22 07:48:35;;;;;;;;;;;;;;;;;;5029177;28;6916;-78
2022/09/22 07:50:08;;;;;;;;;;;;;;;;;;5028126;28;7289;-78
2022/09/22 07:52:34;;;;;;;;;;;;;;;;;;5027218;28;7176;-79
2022/09/22 07:55:00;;;;;;;;;;;;;;;;;;5027431;28;7207;-79
2022/09/22 07:57:25;;;;;;;;;;;;;;;;;;5027156;28;8350;-84
2022/09/22 07:59:50;;;;;;;;;;;;;;;;;;5027333;28;7119;-79
2022/09/22 08:02:16;;;;;;;;;;;;;;;;;;5026440;28;7151;-78
2022/09/22 08:04:42;;;;;;;;;;;;;;;;;;5043533;28;8664;-79
2022/09/22 08:07:08;;;;;;;;;;;;;;;;;;5027515;28;6984;-79
2022/09/22 08:09:34;;;;;;;;;;;;;;;;;;5027485;28;8370;-80
2022/09/22 08:12:01;;;;;;;;;;;;;;;;;;5026935;28;8306;-80
2022/09/22 08:14:26;;;;;;;;;;;;;;;;;;5027114;28;7040;-80
2022/09/22 08:16:52;;;;;;;;;;;;;;;;;;5027022;28;7119;-80
2022/09/22 08:19:19;;;;;;;;;;;;;;;;;;5027316;28;7167;-79
2022/09/22 08:21:46;;;;;;;;;;;;;;;;;;5027053;28;7019;-80
2022/09/22 08:24:13;;;;;;;;;;;;;;;;;;5027419;28;8841;-80
2022/09/22 08:26:40;;;;;;;;;;;;;;;;;;5027380;28;7130;-80
2022/09/22 08:29:06;;;;;;;;;;;;;;;;;;5027253;28;8285;-79
2022/09/22 08:31:34;;;;;;;;;;;;;;;;;;5027159;28;7018;-78
2022/09/22 08:34:00;;;;;;;;;;;;;;;;;;5026848;28;8245;-78
2022/09/22 08:36:27;;;;;;;;;;;;;;;;;;5025151;28;7149;-79
2022/09/22 08:38:58;;;;;;;;;;;;;;;;;;5026978;28;8324;-79
2022/09/22 08:41:23;;;;;;;;;;;;;;;;;;5026862;28;8375;-80
2022/09/22 08:43:54;;;;;;;;;;;;;;;;;;5026797;28;7019;-80
2022/09/22 08:46:38;;;;;;;;;;;;;;;;;;5026857;28;7197;-80
2022/09/22 08:52:02;;;;;;;;;;;;;;;;;;5027471;28;6922;-79
2022/09/22 08:54:30;;;;;;;;;;;;;;;;;;5043085;28;8306;-79
2022/09/22 08:56:56;;;;;;;;;;;;;;;;;;5043150;28;8463;-78
2022/09/22 08:59:37;;;;;;;;;;;;;;;;;;5026498;28;7392;-79
2022/09/22 09:02:21;;;;;;;;;;;;;;;;;;5026235;28;7143;-79
2022/09/22 09:05:01;;;;;;;;;;;;;;;;;;5026700;28;8627;-79
2022/09/22 09:07:27;;;;;;;;;;;;;;;;;;5026648;28;7049;-85
2022/09/22 09:09:56;;;;;;;;;;;;;;;;;;5026399;28;6994;-79
2022/09/22 09:12:33;;;;;;;;;;;;;;;;;;5026619;28;9429;-79
2022/09/22 09:15:04;;;;;;;;;;;;;;;;;;5026689;28;7250;-79
2022/09/22 09:17:34;;;;;;;;;;;;;;;;;;5026531;28;8461;-79
2022/09/22 09:20:15;;;;;;;;;;;;;;;;;;5026401;28;8451;-79
2022/09/22 09:22:46;;;;;;;;;;;;;;;;;;5026356;28;7069;-80
2022/09/22 09:25:21;;;;;;;;;;;;;;;;;;5043195;28;7012;-79
2022/09/22 09:27:52;;;;;;;;;;;;;;;;;;5042867;28;7129;-79
2022/09/22 09:30:19;;;;;;;;;;;;;;;;;;5026651;28;6920;-79
2022/09/22 09:32:50;;;;;;;;;;;;;;;;;;5026303;28;7464;-79
2022/09/22 09:35:28;;;;;;;;;;;;;;;;;;5026139;28;8411;-79
2022/09/22 09:37:59;;;;;;;;;;;;;;;;;;5026067;28;7132;-79
2022/09/22 09:40:26;;;;;;;;;;;;;;;;;;5022840;28;7051;-85
2022/09/22 09:43:04;;;;;;;;;;;;;;;;;;5042610;28;6993;-79
2022/09/22 09:45:50;;;;;;;;;;;;;;;;;;5024112;28;7149;-79
2022/09/22 09:48:27;;;;;;;;;;;;;;;;;;5024530;28;8726;-79
2022/09/22 09:50:53;;;;;;;;;;;;;;;;;;5025938;28;8651;-79
2022/09/22 09:53:33;;;;;;;;;;;;;;;;;;5040455;28;8484;-80
2022/09/22 09:55:59;;;;;;;;;;;;;;;;;;5025913;28;7155;-79
2022/09/22 10:01:13;;;;;;;;;;;;;;;;;;5027312;28;6804;-79
2022/09/22 10:03:53;;;;;;;;;;;;;;;;;;5042295;28;7172;-79
2022/09/22 10:06:24;;;;;;;;;;;;;;;;;;5026047;28;8539;-79
2022/09/22 10:08:50;;;;;;;;;;;;;;;;;;5042159;28;8310;-79
2022/09/22 10:11:27;;;;;;;;;;;;;;;;;;5025487;28;8800;-79
2022/09/22 10:13:55;;;;;;;;;;;;;;;;;;5026288;28;8638;-79
2022/09/22 10:16:20;;;;;;;;;;;;;;;;;;5046059;28;8444;-80
2022/09/22 10:18:47;;;;;;;;;;;;;;;;;;5029710;28;8506;-80
2022/09/22 10:21:16;;;;;;;;;;;;;;;;;;5029468;28;7040;-80
2022/09/22 10:23:46;;;;;;;;;;;;;;;;;;5029561;28;7220;-80
2022/09/22 10:26:25;;;;;;;;;;;;;;;;;;5029409;28;7116;-80
2022/09/22 10:29:09;;;;;;;;;;;;;;;;;;5029030;28;7405;-80
2022/09/22 10:31:36;;;;;;;;;;;;;;;;;;5029208;28;8431;-80
2022/09/22 10:34:03;;;;;;;;;;;;;;;;;;5028935;28;7025;-80
2022/09/22 10:36:29;;;;;;;;;;;;;;;;;;5029268;28;8296;-80
2022/09/22 10:38:55;;;;;;;;;;;;;;;;;;5029536;28;7331;-80
2022/09/22 10:41:26;;;;;;;;;;;;;;;;;;5029212;28;7341;-80
2022/09/22 10:43:56;;;;;;;;;;;;;;;;;;5029246;28;7372;-80
2022/09/22 10:46:34;;;;;;;;;;;;;;;;;;5045422;28;8880;-79
2022/09/22 10:48:59;;;;;;;;;;;;;;;;;;5044786;28;7158;-81
2022/09/22 10:51:33;;;;;;;;;;;;;;;;;;5028150;28;7218;-80
2022/09/22 10:54:04;;;;;;;;;;;;;;;;;;5028985;28;8389;-79
2022/09/22 10:56:33;;;;;;;;;;;;;;;;;;5028979;28;7173;-79
2022/09/22 10:59:01;;;;;;;;;;;;;;;;;;5028590;28;8408;-80
2022/09/22 11:01:27;;;;;;;;;;;;;;;;;;5028691;28;8541;-80
2022/09/22 11:04:20;;;;;;;;;;;;;;;;;;5028639;28;8673;-80
2022/09/22 11:12:38;;;;;;;;;;;;;;;;;;5029736;28;6804;-80
2022/09/22 11:15:13;;;;;;;;;;;;;;;;;;5045181;28;7217;-80
2022/09/22 11:17:39;;;;;;;;;;;;;;;;;;5044999;28;8561;-80
2022/09/22 11:20:23;;;;;;;;;;;;;;;;;;5028234;28;8353;-80
2022/09/22 11:23:00;;;;;;;;;;;;;;;;;;5028129;28;8686;-81
2022/09/22 11:25:29;;;;;;;;;;;;;;;;;;5027628;28;7250;-81
2022/09/22 11:27:55;;;;;;;;;;;;;;;;;;5028305;28;7359;-81
2022/09/22 11:30:21;;;;;;;;;;;;;;;;;;5028024;28;8264;-81
2022/09/22 11:33:06;;;;;;;;;;;;;;;;;;5028228;28;8434;-80
2022/09/22 11:35:31;;;;;;;;;;;;;;;;;;5028354;28;6997;-81
2022/09/22 11:38:03;;;;;;;;;;;;;;;;;;5027977;28;7123;-81
2022/09/22 11:40:34;;;;;;;;;;;;;;;;;;5027913;28;8671;-81
2022/09/22 11:43:18;;;;;;;;;;;;;;;;;;5027811;28;8902;-81
2022/09/22 11:45:50;;;;;;;;;;;;;;;;;;5028053;28;7064;-81
2022/09/22 11:48:24;;;;;;;;;;;;;;;;;;5027859;28;7158;-81
2022/09/22 11:51:09;;;;;;;;;;;;;;;;;;5027829;28;6909;-81
2022/09/22 11:53:49;;;;;;;;;;;;;;;;;;5028010;28;8288;-80
2022/09/22 11:56:15;;;;;;;;;;;;;;;;;;5027911;28;7641;-80
2022/09/22 11:58:43;;;;;;;;;;;;;;;;;;5027458;28;7242;-80
2022/09/22 12:01:18;;;;;;;;;;;;;;;;;;5026279;28;7192;-83
2022/09/22 12:03:51;;;;;;;;;;;;;;;;;;5015875;28;7351;-75
2022/09/22 12:06:22;;;;;;;;;;;;;;;;;;5031360;28;7176;-75
2022/09/22 12:08:54;;;;;;;;;;;;;;;;;;5031690;28;7191;-87
2022/09/22 12:11:24;;;;;;;;;;;;;;;;;;5018701;28;7473;-86
2022/09/22 12:13:52;;;;;;;;;;;;;;;;;;5017090;28;8446;-86
2022/09/22 12:16:40;;;;;;;;;;;;;;;;;;5014985;28;8327;-88
2022/09/22 12:19:20;;;;;;;;;;;;;;;;;;5016475;28;8518;-85
2022/09/22 12:21:46;;;;;;;;;;;;;;;;;;5032914;28;9133;-87
2022/09/22 12:24:12;;;;;;;;;;;;;;;;;;5015312;28;8303;-86
2022/09/22 12:26:40;;;;;;;;;;;;;;;;;;5013671;28;7042;-88
2022/09/22 12:29:19;;;;;;;;;;;;;;;;;;5014959;28;6801;-88
2022/09/22 12:31:47;;;;;;;;;;;;;;;;;;4999109;28;8302;-87
2022/09/22 12:34:33;;;;;;;;;;;;;;;;;;5017477;28;7167;-88
2022/09/22 12:37:28;;;;;;;;;;;;;;;;;;5014132;28;7240;-88
2022/09/22 12:39:56;;;;;;;;;;;;;;;;;;5002768;28;8886;-87
2022/09/22 12:42:31;;;;;;;;;;;;;;;;;;5031826;28;8306;-89
2022/09/22 12:45:02;;;;;;;;;;;;;;;;;;5014955;28;7050;-88
2022/09/22 12:47:37;;;;;;;;;;;;;;;;;;5015569;28;7258;-88
2022/09/22 12:50:23;;;;;;;;;;;;;;;;;;5014807;28;7229;-88
2022/09/22 12:52:52;;;;;;;;;;;;;;;;;;5014607;28;8426;-87
2022/09/22 12:55:20;;;;;;;;;;;;;;;;;;5014971;28;8443;-88
2022/09/22 12:57:48;;;;;;;;;;;;;;;;;;5014634;28;8459;-87
2022/09/22 13:00:21;;;;;;;;;;;;;;;;;;5014861;28;8423;-89
2022/09/22 13:02:49;;;;;;;;;;;;;;;;;;5014035;28;7217;-88
2022/09/22 13:05:24;;;;;;;;;;;;;;;;;;5031556;28;7331;-88
2022/09/22 13:07:52;;;;;;;;;;;;;;;;;;5014035;28;7335;-88
2022/09/22 13:10:23;;;;;;;;;;;;;;;;;;5014639;28;7062;-87
2022/09/22 13:13:04;;;;;;;;;;;;;;;;;;5014764;28;8465;-88
2022/09/22 13:15:48;;;;;;;;;;;;;;;;;;5014106;28;7216;-89
2022/09/22 13:18:29;;;;;;;;;;;;;;;;;;5014047;28;8582;-88
2022/09/22 13:20:55;;;;;;;;;;;;;;;;;;5013978;28;7429;-85
2022/09/22 13:23:21;;;;;;;;;;;;;;;;;;5013724;28;7057;-88
2022/09/22 13:25:50;;;;;;;;;;;;;;;;;;5013979;28;8473;-90
2022/09/22 13:28:26;;;;;;;;;;;;;;;;;;5014135;28;7249;-88
2022/09/22 13:31:00;;;;;;;;;;;;;;;;;;5014295;28;8486;-87
2022/09/22 13:33:28;;;;;;;;;;;;;;;;;;5014446;28;6819;-88
2022/09/22 13:36:01;;;;;;;;;;;;;;;;;;5014402;28;7120;-88
2022/09/22 13:38:27;;;;;;;;;;;;;;;;;;5014709;28;8368;-88
2022/09/22 13:40:53;;;;;;;;;;;;;;;;;;5030703;28;8868;-89
2022/09/22 13:43:30;;;;;;;;;;;;;;;;;;5013984;28;8429;-88
2022/09/22 13:45:58;;;;;;;;;;;;;;;;;;5014158;28;8429;-88
2022/09/22 13:48:27;;;;;;;;;;;;;;;;;;5014640;28;7186;-88
2022/09/22 13:50:59;;;;;;;;;;;;;;;;;;5018288;28;8518;-88
2022/09/22 13:53:25;;;;;;;;;;;;;;;;;;5018062;28;8382;-88
2022/09/22 13:55:52;;;;;;;;;;;;;;;;;;5017763;28;8780;-88
2022/09/22 13:58:23;;;;;;;;;;;;;;;;;;5018125;28;7211;-87
2022/09/22 14:00:57;;;;;;;;;;;;;;;;;;5017981;28;8642;-88
2022/09/22 14:03:23;;;;;;;;;;;;;;;;;;5033604;28;7037;-88
2022/09/22 14:05:50;;;;;;;;;;;;;;;;;;5033737;28;7165;-88
2022/09/22 14:08:19;;;;;;;;;;;;;;;;;;5017705;28;6997;-88
2022/09/22 14:10:46;;;;;;;;;;;;;;;;;;5016739;28;7260;-88
2022/09/22 14:13:30;;;;;;;;;;;;;;;;;;5017907;28;7427;-87
2022/09/22 14:15:55;;;;;;;;;;;;;;;;;;5018906;28;8415;-86
2022/09/22 14:18:27;;;;;;;;;;;;;;;;;;5017473;28;7026;-89
2022/09/22 14:20:57;;;;;;;;;;;;;;;;;;5017593;28;7036;-87
2022/09/22 14:23:30;;;;;;;;;;;;;;;;;;5017411;28;7050;-88
2022/09/22 14:25:59;;;;;;;;;;;;;;;;;;5017883;28;7591;-88
2022/09/22 14:28:28;;;;;;;;;;;;;;;;;;5016791;28;8438;-88
2022/09/22 14:30:54;;;;;;;;;;;;;;;;;;5016995;28;7062;-88
2022/09/22 14:33:24;;;;;;;;;;;;;;;;;;5017085;28;7050;-87
2022/09/22 14:35:58;;;;;;;;;;;;;;;;;;5017935;28;8321;-90
2022/09/22 14:38:26;;;;;;;;;;;;;;;;;;5017504;28;7353;-89
2022/09/22 14:40:53;;;;;;;;;;;;;;;;;;5034070;28;8438;-88
2022/09/22 14:43:36;;;;;;;;;;;;;;;;;;5016976;28;6825;-89
2022/09/22 14:46:19;;;;;;;;;;;;;;;;;;5016849;28;8844;-88
2022/09/22 14:48:44;;;;;;;;;;;;;;;;;;5034004;28;8723;-88
2022/09/22 14:51:18;;;;;;;;;;;;;;;;;;5033255;28;7872;-88
2022/09/22 14:53:54;;;;;;;;;;;;;;;;;;5017569;28;7032;-88
2022/09/22 14:56:33;;;;;;;;;;;;;;;;;;5032246;28;7180;-89
2022/09/22 15:02:30;;;;;;;;;;;;;;;;;;5016429;28;8360;-88
2022/09/22 15:04:45;;;;;;;;;;;;;;;;;;5017756;28;6812;-88
2022/09/22 15:07:33;;;;;;;;;;;;;;;;;;5033699;28;7190;-87
2022/09/22 15:10:01;;;;;;;;;;;;;;;;;;5032867;28;7233;-86
2022/09/22 15:12:39;;;;;;;;;;;;;;;;;;5016149;28;7160;-88
2022/09/22 15:15:14;;;;;;;;;;;;;;;;;;5015810;28;9281;-88
2022/09/22 15:20:27;;;;;;;;;;;;;;;;;;5017320;28;6930;-87
2022/09/22 15:22:53;;;;;;;;;;;;;;;;;;5015930;28;8337;-86
2022/09/22 15:25:20;;;;;;;;;;;;;;;;;;5015632;28;7038;-88
2022/09/22 15:27:46;;;;;;;;;;;;;;;;;;5016260;28;8358;-88
2022/09/22 15:30:14;;;;;;;;;;;;;;;;;;5015958;28;8413;-87
2022/09/22 15:32:40;;;;;;;;;;;;;;;;;;5015578;28;8816;-87
2022/09/22 15:35:06;;;;;;;;;;;;;;;;;;5015596;28;7158;-88
2022/09/22 15:37:32;;;;;;;;;;;;;;;;;;5015870;28;8511;-88
2022/09/22 15:39:59;;;;;;;;;;;;;;;;;;5016148;28;7113;-88
2022/09/22 15:42:26;;;;;;;;;;;;;;;;;;5015600;28;7180;-88
2022/09/22 15:44:52;;;;;;;;;;;;;;;;;;5015241;28;7250;-87
2022/09/22 15:47:17;;;;;;;;;;;;;;;;;;5015597;28;6799;-87
2022/09/22 15:49:43;;;;;;;;;;;;;;;;;;5015233;28;7212;-86
2022/09/22 15:52:10;;;;;;;;;;;;;;;;;;5015362;28;7033;-87
2022/09/22 15:54:36;;;;;;;;;;;;;;;;;;5015302;28;7251;-87
2022/09/22 15:57:04;;;;;;;;;;;;;;;;;;5015194;28;7153;-88
2022/09/22 15:59:31;;;;;;;;;;;;;;;;;;5015509;28;7358;-87
2022/09/22 16:01:58;;;;;;;;;;;;;;;;;;5015136;28;8496;-87
2022/09/22 16:04:28;;;;;;;;;;;;;;;;;;5015183;28;7598;-88
2022/09/22 16:07:01;;;;;;;;;;;;;;;;;;5014956;28;7034;-87
2022/09/22 16:09:27;;;;;;;;;;;;;;;;;;5031613;28;7428;-87
2022/09/22 16:11:53;;;;;;;;;;;;;;;;;;5013801;28;7219;-87
2022/09/22 16:14:21;;;;;;;;;;;;;;;;;;5014758;28;7135;-87
2022/09/22 16:16:48;;;;;;;;;;;;;;;;;;5031721;28;7151;-87
2022/09/22 16:19:14;;;;;;;;;;;;;;;;;;5015225;28;6993;-87
2022/09/22 16:21:47;;;;;;;;;;;;;;;;;;5014894;28;8429;-89
2022/09/22 16:24:12;;;;;;;;;;;;;;;;;;5014557;28;8278;-87
2022/09/22 16:26:39;;;;;;;;;;;;;;;;;;5032001;28;7224;-87
2022/09/22 16:29:06;;;;;;;;;;;;;;;;;;5014640;28;8345;-87
2022/09/22 16:31:32;;;;;;;;;;;;;;;;;;5015032;28;7180;-86
2022/09/22 16:34:00;;;;;;;;;;;;;;;;;;5014623;28;7168;-86
2022/09/22 16:36:27;;;;;;;;;;;;;;;;;;5014331;28;7029;-87
2022/09/22 16:38:54;;;;;;;;;;;;;;;;;;5014772;28;7040;-88
2022/09/22 16:41:21;;;;;;;;;;;;;;;;;;5014662;28;7168;-88
2022/09/22 16:43:48;;;;;;;;;;;;;;;;;;5014119;28;7447;-87
2022/09/22 16:46:25;;;;;;;;;;;;;;;;;;5014952;28;7053;-87
2022/09/22 16:49:04;;;;;;;;;;;;;;;;;;5014897;28;8719;-88
2022/09/22 16:51:32;;;;;;;;;;;;;;;;;;5032017;28;7048;-86
2022/09/22 16:53:58;;;;;;;;;;;;;;;;;;5031308;28;8445;-87
2022/09/22 16:56:25;;;;;;;;;;;;;;;;;;5014322;28;7163;-86
2022/09/22 16:58:52;;;;;;;;;;;;;;;;;;5014131;28;7157;-87
2022/09/22 17:01:18;;;;;;;;;;;;;;;;;;5013920;28;7369;-86
2022/09/22 17:03:45;;;;;;;;;;;;;;;;;;5014448;28;7022;-86
2022/09/22 17:06:12;;;;;;;;;;;;;;;;;;5015054;28;7155;-86
2022/09/22 17:08:42;;;;;;;;;;;;;;;;;;5014175;28;7355;-87
2022/09/22 17:11:16;;;;;;;;;;;;;;;;;;5013815;28;7216;-86
2022/09/22 17:13:42;;;;;;;;;;;;;;;;;;5014394;28;7185;-86
2022/09/22 17:16:17;;;;;;;;;;;;;;;;;;5013856;28;7166;-86
2022/09/22 17:18:43;;;;;;;;;;;;;;;;;;5012958;28;7048;-85
2022/09/22 17:21:09;;;;;;;;;;;;;;;;;;5028454;28;7562;-86
2022/09/22 17:23:35;;;;;;;;;;;;;;;;;;5012870;28;8784;-85
2022/09/22 17:26:01;;;;;;;;;;;;;;;;;;5013943;28;7752;-86
2022/09/22 17:28:27;;;;;;;;;;;;;;;;;;5013652;28;7178;-85
2022/09/22 17:30:56;;;;;;;;;;;;;;;;;;5013217;28;7117;-86
2022/09/22 17:33:22;;;;;;;;;;;;;;;;;;5012711;28;7177;-86
2022/09/22 17:35:48;;;;;;;;;;;;;;;;;;5013634;28;7425;-86
2022/09/22 17:38:13;;;;;;;;;;;;;;;;;;5013145;28;8403;-82